Terminal Aerodrome Forecast
Issued by NWS

Home | Current Version | Previous Version | Text Only | Print | Product List | Glossary On
Versions: 1 2 3 4 5 6 7 8 9 10 11 12 13 14 15 16 17 18 19
000
FTUS45 KCYS 271729
TAFLAR
TAF
KLAR 271729Z 2718/2818 20012KT P6SM BKN100
     FM280300 16008KT 6SM -RA SCT007 OVC020
     FM280600 17008KT 2SM -SN SCT003 OVC007
     FM281200 17010KT 1SM -RASN BR OVC003=

USA.gov is the U.S. government's official web portal to all federal, state and local government web resources and services.